Time;durP1;ratioP1;P1;durP2;ratioP2;P2;SDS_P1;SDS_P2;PMS_P1;PMS_P2;Temp;Humidity;BMP_temperature;BMP_pressure;BME280_temperature;BME280_humidity;BME280_pressure;Samples;Min_cycle;Max_cycle;Signal;HPM_P1;HPM_P2
2022/09/01 00:00:48;;;;;;;2.80;0.98;;;23.70;67.10;;;;;;6096685;23;20050;-66
2022/09/01 00:03:22;;;;;;;4.05;1.17;;;23.70;67.70;;;;;;6097048;23;20034;-66
2022/09/01 00:05:53;;;;;;;5.22;1.10;;;23.70;68.60;;;;;;6096857;23;20018;-66
2022/09/01 00:08:20;;;;;;;3.65;1.50;;;23.60;68.90;;;;;;6097089;23;20017;-66
2022/09/01 00:10:47;;;;;;;3.58;1.10;;;23.60;70.00;;;;;;6096960;23;20081;-65
2022/09/01 00:13:13;;;;;;;2.13;1.20;;;23.50;70.40;;;;;;6097088;23;20099;-66
2022/09/01 00:15:39;;;;;;;4.28;1.10;;;23.40;71.20;;;;;;6096831;23;20003;-66
2022/09/01 00:18:05;;;;;;;4.93;1.00;;;23.30;71.90;;;;;;6096823;23;19998;-66
2022/09/01 00:20:31;;;;;;;2.05;1.10;;;23.30;72.20;;;;;;6096606;23;20003;-66
2022/09/01 00:22:59;;;;;;;5.30;1.30;;;23.20;72.20;;;;;;6096800;23;20429;-66
2022/09/01 00:25:27;;;;;;;3.05;1.10;;;23.10;72.40;;;;;;6096822;23;20334;-65
2022/09/01 00:27:58;;;;;;;4.78;1.13;;;23.00;72.70;;;;;;6096795;23;20006;-66
2022/09/01 00:30:24;;;;;;;3.37;1.10;;;22.90;73.00;;;;;;6096883;23;20334;-66
2022/09/01 00:32:49;;;;;;;2.95;1.30;;;22.80;73.20;;;;;;6096766;23;19999;-66
2022/09/01 00:35:18;;;;;;;3.17;1.08;;;22.70;73.60;;;;;;6096929;23;20431;-66
2022/09/01 00:37:44;;;;;;;3.95;1.23;;;22.60;74.20;;;;;;6096670;23;19998;-66
2022/09/01 00:40:12;;;;;;;2.15;1.35;;;22.50;74.30;;;;;;6096725;23;20020;-67
2022/09/01 00:42:39;;;;;;;1.67;1.05;;;22.50;74.60;;;;;;6096710;23;20066;-66
2022/09/01 00:45:07;;;;;;;3.70;1.10;;;22.50;73.90;;;;;;6096421;23;20442;-66
2022/09/01 00:47:34;;;;;;;4.80;1.25;;;22.50;73.70;;;;;;6096934;23;20018;-66
2022/09/01 00:50:01;;;;;;;2.22;1.30;;;22.40;73.90;;;;;;6096746;23;20082;-66
2022/09/01 00:52:34;;;;;;;3.20;1.30;;;22.40;73.70;;;;;;6096683;23;20003;-66
2022/09/01 00:55:06;;;;;;;4.82;1.30;;;22.30;74.10;;;;;;6096909;23;20418;-66
2022/09/01 00:57:32;;;;;;;3.38;1.00;;;22.30;74.30;;;;;;6096467;23;20025;-66
2022/09/01 01:00:22;;;;;;;2.05;1.08;;;22.20;74.50;;;;;;6097712;23;20042;-66
2022/09/01 01:02:52;;;;;;;4.40;1.30;;;22.20;74.50;;;;;;6098797;23;20011;-66
2022/09/01 01:05:20;;;;;;;2.88;1.00;;;22.20;74.80;;;;;;6098334;23;20069;-65
2022/09/01 01:07:46;;;;;;;2.35;0.98;;;22.20;74.90;;;;;;6098372;23;20361;-66
2022/09/01 01:10:14;;;;;;;3.22;1.20;;;22.20;74.90;;;;;;6098010;23;20006;-65
2022/09/01 01:12:42;;;;;;;1.80;1.20;;;22.10;74.90;;;;;;6098282;23;20006;-66
2022/09/01 01:15:11;;;;;;;5.40;1.58;;;22.00;75.10;;;;;;6098332;23;20498;-66
2022/09/01 01:17:38;;;;;;;6.55;1.70;;;22.00;75.70;;;;;;6098209;23;20003;-66
2022/09/01 01:23:19;;;;;;;1.50;1.15;;;21.80;76.30;;;;;;6098261;23;20102;-66
2022/09/01 01:25:52;;;;;;;2.45;1.45;;;21.80;76.40;;;;;;6098364;23;20014;-66
2022/09/01 01:28:30;;;;;;;3.38;1.40;;;21.70;76.60;;;;;;6098061;23;20086;-67
2022/09/01 01:30:56;;;;;;;5.03;1.60;;;21.70;76.60;;;;;;6098420;23;20015;-66
2022/09/01 01:33:29;;;;;;;2.60;1.23;;;21.70;76.70;;;;;;6098034;23;20380;-66
2022/09/01 01:35:56;;;;;;;3.53;1.20;;;21.70;76.40;;;;;;6097673;23;20007;-67
2022/09/01 01:38:23;;;;;;;1.13;1.00;;;21.60;76.30;;;;;;6098113;23;20049;-66
2022/09/01 01:40:52;;;;;;;1.63;1.45;;;21.60;76.50;;;;;;6098441;23;20090;-67
2022/09/01 01:43:21;;;;;;;3.92;1.38;;;21.60;76.50;;;;;;6098284;23;20017;-66
2022/09/01 01:45:50;;;;;;;2.22;1.48;;;21.60;76.80;;;;;;6098124;23;20051;-66
2022/09/01 01:48:27;;;;;;;3.13;1.17;;;21.60;76.20;;;;;;6097861;23;19998;-66
2022/09/01 01:50:58;;;;;;;3.30;1.55;;;21.60;75.90;;;;;;6097777;23;20003;-66
2022/09/01 01:53:24;;;;;;;1.75;1.08;;;21.60;76.30;;;;;;6098165;23;20327;-66
2022/09/01 01:55:50;;;;;;;1.83;1.40;;;21.50;76.40;;;;;;6097386;23;20003;-66
2022/09/01 01:58:18;;;;;;;2.25;1.50;;;21.50;76.60;;;;;;6096756;23;20066;-66
2022/09/01 02:00:46;;;;;;;1.65;1.50;;;21.50;77.10;;;;;;6097607;23;20022;-66
2022/09/01 02:03:18;;;;;;;2.95;1.25;;;21.50;77.30;;;;;;6097605;23;19999;-66
2022/09/01 02:05:46;;;;;;;1.63;1.27;;;21.50;77.50;;;;;;6097716;23;20097;-67
2022/09/01 02:08:14;;;;;;;1.83;1.00;;;21.50;77.30;;;;;;6097635;23;20033;-66
2022/09/01 02:10:45;;;;;;;1.83;1.20;;;21.50;77.40;;;;;;6097711;23;20029;-66
2022/09/01 02:13:16;;;;;;;2.28;1.20;;;21.50;77.20;;;;;;6097644;23;20034;-66
2022/09/01 02:15:49;;;;;;;2.65;1.08;;;21.50;77.00;;;;;;6097822;23;20118;-66
2022/09/01 02:18:23;;;;;;;2.10;1.30;;;21.50;77.10;;;;;;6097426;23;20039;-66
2022/09/01 02:20:51;;;;;;;2.05;0.90;;;21.50;77.30;;;;;;6097821;23;20034;-67
2022/09/01 02:23:22;;;;;;;4.05;1.10;;;21.50;77.00;;;;;;6097812;23;20311;-66
2022/09/01 02:25:49;;;;;;;1.13;0.80;;;21.50;77.10;;;;;;6097463;23;20534;-67
2022/09/01 02:28:17;;;;;;;1.00;0.90;;;21.50;76.80;;;;;;6097684;23;19998;-66
2022/09/01 02:30:44;;;;;;;1.08;0.90;;;21.50;76.40;;;;;;6097810;23;20018;-66
2022/09/01 02:33:17;;;;;;;1.25;0.80;;;21.50;76.60;;;;;;6097137;23;20370;-66
2022/09/01 02:35:56;;;;;;;1.23;0.70;;;21.50;76.00;;;;;;6097516;23;20307;-66
2022/09/01 02:38:24;;;;;;;1.27;0.80;;;21.50;76.10;;;;;;6097536;23;20007;-66
2022/09/01 02:40:52;;;;;;;1.40;0.80;;;21.50;76.00;;;;;;6097519;23;20006;-66
2022/09/01 02:43:19;;;;;;;1.13;0.73;;;21.50;76.40;;;;;;6097628;23;20374;-66
2022/09/01 02:45:47;;;;;;;0.68;0.60;;;21.50;76.00;;;;;;6097271;23;20018;-67
2022/09/01 02:48:13;;;;;;;1.98;0.60;;;21.50;76.40;;;;;;6097381;23;19999;-66
2022/09/01 02:50:40;;;;;;;1.05;0.80;;;21.50;75.70;;;;;;6097591;23;20058;-66
2022/09/01 02:53:09;;;;;;;5.15;0.80;;;21.50;75.60;;;;;;6097396;23;20362;-66
2022/09/01 02:55:39;;;;;;;2.15;0.80;;;21.50;75.60;;;;;;6097221;23;20014;-67
2022/09/01 02:58:06;;;;;;;1.33;0.77;;;21.50;75.60;;;;;;6097545;23;20355;-66
2022/09/01 03:00:36;;;;;;;1.75;0.68;;;21.50;75.30;;;;;;6097180;23;20018;-67
2022/09/01 03:03:02;;;;;;;1.95;0.90;;;21.50;75.40;;;;;;6097342;23;20002;-67
2022/09/01 03:05:31;;;;;;;1.58;0.80;;;21.50;75.70;;;;;;6097116;23;20097;-66
2022/09/01 03:07:59;;;;;;;2.80;0.80;;;21.50;76.40;;;;;;6097456;23;20014;-66
2022/09/01 03:10:31;;;;;;;3.90;0.80;;;21.50;75.50;;;;;;6097587;23;20014;-67
2022/09/01 03:13:07;;;;;;;0.82;0.60;;;21.50;75.60;;;;;;6097379;23;20017;-67
2022/09/01 03:15:35;;;;;;;0.60;0.60;;;21.50;75.60;;;;;;6097198;23;20015;-66
2022/09/01 03:18:02;;;;;;;1.00;0.60;;;21.50;75.50;;;;;;6097417;23;20026;-67
2022/09/01 03:20:32;;;;;;;1.45;0.60;;;21.50;75.10;;;;;;6097347;23;20006;-66
2022/09/01 03:23:02;;;;;;;0.70;0.63;;;21.50;75.20;;;;;;6097099;23;20061;-67
2022/09/01 03:25:28;;;;;;;4.38;0.80;;;21.50;75.40;;;;;;6097362;23;20464;-66
2022/09/01 03:27:58;;;;;;;0.77;0.50;;;21.50;75.10;;;;;;6097003;23;19998;-67
2022/09/01 03:30:25;;;;;;;0.85;0.60;;;21.50;75.00;;;;;;6097313;23;20014;-67
2022/09/01 03:32:51;;;;;;;0.88;0.57;;;21.60;75.30;;;;;;6096933;23;20018;-65
2022/09/01 03:35:17;;;;;;;1.95;0.50;;;21.60;75.30;;;;;;6097083;23;20007;-66
2022/09/01 03:37:43;;;;;;;0.70;0.55;;;21.60;75.20;;;;;;6097018;23;20014;-66
2022/09/01 03:40:11;;;;;;;0.63;0.47;;;21.50;74.80;;;;;;6097340;23;20010;-67
2022/09/01 03:42:38;;;;;;;2.17;0.43;;;21.60;74.40;;;;;;6097208;23;20010;-66
2022/09/01 03:45:08;;;;;;;0.90;0.60;;;21.60;74.20;;;;;;6096741;23;20061;-66
2022/09/01 03:47:38;;;;;;;0.77;0.47;;;21.60;74.00;;;;;;6097046;23;20029;-67
2022/09/01 03:50:11;;;;;;;0.73;0.70;;;21.60;74.00;;;;;;6097174;23;20078;-66
2022/09/01 03:52:38;;;;;;;0.98;0.55;;;21.60;73.80;;;;;;6096764;23;20038;-67
2022/09/01 03:55:04;;;;;;;0.70;0.60;;;21.60;73.90;;;;;;6096751;23;20439;-66
2022/09/01 03:57:30;;;;;;;0.75;0.60;;;21.50;73.80;;;;;;6096916;23;20003;-66
2022/09/01 03:59:55;;;;;;;0.75;0.50;;;21.60;74.10;;;;;;6096755;23;20082;-66
2022/09/01 04:02:21;;;;;;;0.77;0.50;;;21.50;74.00;;;;;;6097087;23;20014;-67
2022/09/01 04:04:47;;;;;;;1.08;0.63;;;21.50;73.90;;;;;;6096929;23;20026;-67
2022/09/01 04:07:13;;;;;;;1.85;0.50;;;21.50;73.80;;;;;;6097168;23;20509;-66
2022/09/01 04:09:38;;;;;;;0.60;0.60;;;21.50;73.60;;;;;;6096901;23;20015;-66
2022/09/01 04:12:06;;;;;;;2.17;0.63;;;21.50;73.40;;;;;;6097008;23;20010;-66
2022/09/01 04:14:33;;;;;;;1.77;0.40;;;21.50;73.50;;;;;;6097264;23;20014;-67
2022/09/01 04:19:43;;;;;;;0.50;0.50;;;21.50;73.50;;;;;;6096872;23;20056;-66
2022/09/01 04:22:15;;;;;;;0.60;0.50;;;21.50;73.60;;;;;;6096908;23;20405;-66
2022/09/01 04:24:44;;;;;;;0.88;0.50;;;21.50;73.50;;;;;;6096610;23;20011;-67
2022/09/01 04:27:10;;;;;;;0.70;0.40;;;21.50;73.40;;;;;;6096733;23;20014;-67
2022/09/01 04:29:36;;;;;;;0.52;0.30;;;21.50;73.40;;;;;;6096679;23;19999;-67
2022/09/01 04:32:05;;;;;;;0.60;0.50;;;21.40;73.50;;;;;;6096613;23;20011;-67
2022/09/01 04:34:36;;;;;;;1.23;0.55;;;21.40;73.50;;;;;;6097567;23;20418;-66
2022/09/01 04:37:07;;;;;;;0.45;0.40;;;21.40;73.30;;;;;;6098972;23;20032;-66
2022/09/01 04:39:35;;;;;;;4.78;0.50;;;21.40;71.70;;;;;;6098796;23;20010;-66
2022/09/01 04:42:03;;;;;;;1.05;0.40;;;21.40;71.70;;;;;;6073017;23;20370;-66
2022/09/01 04:44:29;;;;;;;2.30;0.50;;;21.40;72.00;;;;;;6098300;23;20029;-66
2022/09/01 04:46:55;;;;;;;0.77;0.40;;;21.40;71.60;;;;;;6098396;23;20016;-67
2022/09/01 04:49:25;;;;;;;0.93;0.50;;;21.40;71.80;;;;;;6098830;23;20053;-66
2022/09/01 04:51:52;;;;;;;0.60;0.40;;;21.40;71.60;;;;;;6098735;23;20010;-66
2022/09/01 04:54:18;;;;;;;0.50;0.30;;;21.40;71.90;;;;;;6098653;23;20004;-66
2022/09/01 04:56:48;;;;;;;0.40;0.40;;;21.40;71.90;;;;;;6098855;23;20318;-66
2022/09/01 04:59:14;;;;;;;1.42;0.40;;;21.40;71.90;;;;;;6098663;23;20377;-67
2022/09/01 05:01:44;;;;;;;1.08;0.50;;;21.40;71.80;;;;;;6098550;23;20077;-66
2022/09/01 05:04:13;;;;;;;1.55;0.30;;;21.40;71.50;;;;;;6098623;23;20014;-66
2022/09/01 05:06:41;;;;;;;1.75;0.30;;;21.30;71.50;;;;;;6098281;23;20018;-66
2022/09/01 05:09:08;;;;;;;0.30;0.30;;;21.30;71.40;;;;;;6098456;23;20014;-67
2022/09/01 05:11:36;;;;;;;0.30;0.30;;;21.40;71.40;;;;;;6098141;23;20013;-66
2022/09/01 05:14:03;;;;;;;2.15;0.45;;;21.40;71.20;;;;;;6098458;23;20329;-67
2022/09/01 05:16:29;;;;;;;1.25;0.40;;;21.30;70.90;;;;;;6098352;23;20002;-66
2022/09/01 05:18:55;;;;;;;0.38;0.38;;;21.40;71.40;;;;;;6098447;23;19998;-66
2022/09/01 05:21:27;;;;;;;0.55;0.47;;;21.30;71.20;;;;;;6098142;23;20006;-65
2022/09/01 05:23:53;;;;;;;0.40;0.40;;;21.30;71.30;;;;;;6098250;23;20486;-66
2022/09/01 05:26:24;;;;;;;3.08;0.50;;;21.30;71.80;;;;;;6098190;23;20037;-66
2022/09/01 05:28:53;;;;;;;0.38;0.32;;;21.30;71.20;;;;;;6098397;23;20016;-66
2022/09/01 05:31:20;;;;;;;0.28;0.25;;;21.30;71.10;;;;;;6098142;23;20006;-67
2022/09/01 05:33:48;;;;;;;2.47;0.50;;;21.30;71.00;;;;;;6098375;23;20057;-66
2022/09/01 05:36:16;;;;;;;0.50;0.50;;;21.40;71.00;;;;;;6098476;23;20090;-66
2022/09/01 05:38:43;;;;;;;0.57;0.40;;;21.40;70.70;;;;;;6098022;23;20060;-66
2022/09/01 05:41:13;;;;;;;1.00;0.60;;;21.40;70.70;;;;;;6098066;23;20070;-66
2022/09/01 05:43:45;;;;;;;0.80;0.40;;;21.40;70.40;;;;;;6097768;23;20433;-66
2022/09/01 05:46:14;;;;;;;0.40;0.40;;;21.40;70.50;;;;;;6097732;23;20014;-66
2022/09/01 05:48:41;;;;;;;2.38;0.40;;;21.40;70.50;;;;;;6098124;23;20010;-66
2022/09/01 05:51:07;;;;;;;0.82;0.50;;;21.40;69.80;;;;;;6097941;23;20014;-66
2022/09/01 05:53:33;;;;;;;2.60;0.50;;;21.40;69.80;;;;;;6098112;23;20066;-66
2022/09/01 05:56:05;;;;;;;0.75;0.50;;;21.40;69.80;;;;;;6097682;23;20033;-65
2022/09/01 05:58:33;;;;;;;0.32;0.32;;;21.40;69.60;;;;;;6097786;23;20003;-66
2022/09/01 06:00:59;;;;;;;0.60;0.40;;;21.50;69.10;;;;;;6097972;23;20021;-66
2022/09/01 06:03:26;;;;;;;0.55;0.55;;;21.60;68.70;;;;;;6097714;23;19999;-67
2022/09/01 06:05:54;;;;;;;3.03;0.40;;;21.60;68.70;;;;;;6097921;23;20022;-66
2022/09/01 06:08:23;;;;;;;1.15;0.52;;;21.60;68.90;;;;;;6097728;23;20377;-66
2022/09/01 06:10:53;;;;;;;0.50;0.40;;;21.60;69.10;;;;;;6097349;23;20021;-66
2022/09/01 06:13:20;;;;;;;0.77;0.40;;;21.60;68.40;;;;;;6098394;23;20085;-67
2022/09/01 06:15:52;;;;;;;1.25;0.50;;;21.60;68.10;;;;;;6098082;23;20312;-66
2022/09/01 06:18:20;;;;;;;1.08;0.50;;;21.60;68.20;;;;;;6097546;23;20006;-66
2022/09/01 06:20:46;;;;;;;0.40;0.40;;;21.70;67.60;;;;;;6097457;23;20030;-66
2022/09/01 06:23:17;;;;;;;0.88;0.60;;;21.70;67.70;;;;;;6097716;23;20033;-66
2022/09/01 06:25:45;;;;;;;0.80;0.60;;;21.70;67.30;;;;;;6097813;23;20041;-66
2022/09/01 06:28:16;;;;;;;1.20;0.52;;;21.70;67.60;;;;;;6097466;23;19998;-66
2022/09/01 06:30:45;;;;;;;1.88;0.43;;;21.70;67.40;;;;;;6097626;23;20329;-66
2022/09/01 06:33:12;;;;;;;1.20;0.40;;;21.70;67.30;;;;;;6097480;23;20338;-66
2022/09/01 06:35:40;;;;;;;0.60;0.60;;;21.70;67.40;;;;;;6098107;23;20026;-66
2022/09/01 06:38:07;;;;;;;0.50;0.50;;;21.80;66.70;;;;;;6097421;23;20010;-66
2022/09/01 06:40:34;;;;;;;0.60;0.45;;;21.80;66.90;;;;;;6097454;23;20002;-66
2022/09/01 06:43:06;;;;;;;1.60;0.50;;;21.80;66.60;;;;;;6097430;23;20028;-66
2022/09/01 06:45:34;;;;;;;1.55;0.60;;;21.80;66.40;;;;;;6097099;23;20011;-66
2022/09/01 06:48:00;;;;;;;0.73;0.60;;;21.80;66.40;;;;;;6097698;23;20038;-66
2022/09/01 06:50:26;;;;;;;0.93;0.80;;;21.80;66.20;;;;;;6097736;23;20010;-66
2022/09/01 06:53:00;;;;;;;1.08;0.50;;;21.80;65.90;;;;;;6097398;23;20077;-66
2022/09/01 06:55:30;;;;;;;4.25;0.77;;;21.80;65.90;;;;;;6097796;23;20341;-66
2022/09/01 06:57:57;;;;;;;0.98;0.70;;;21.80;66.30;;;;;;6096909;23;20013;-66
2022/09/01 07:00:25;;;;;;;2.00;0.70;;;21.80;66.50;;;;;;6097027;23;20022;-66
2022/09/01 07:02:55;;;;;;;1.63;0.68;;;21.80;65.70;;;;;;6097150;23;19998;-66
2022/09/01 07:05:22;;;;;;;2.60;0.70;;;21.80;66.00;;;;;;6097361;23;20014;-66
2022/09/01 07:07:50;;;;;;;1.13;0.80;;;21.80;66.10;;;;;;6097293;23;20378;-66
2022/09/01 07:10:21;;;;;;;0.93;0.70;;;21.90;65.90;;;;;;6097040;23;20066;-66
2022/09/01 07:12:48;;;;;;;1.02;0.85;;;21.90;65.70;;;;;;6097276;23;20049;-66
2022/09/01 07:15:16;;;;;;;1.75;0.75;;;21.90;65.40;;;;;;6097153;23;20007;-66
2022/09/01 07:17:47;;;;;;;5.45;1.00;;;21.90;65.30;;;;;;6097263;23;20010;-66
2022/09/01 07:20:14;;;;;;;0.95;0.70;;;21.90;64.80;;;;;;6097436;23;20066;-66
2022/09/01 07:22:41;;;;;;;1.10;0.70;;;22.00;64.50;;;;;;6096842;23;20038;-66
2022/09/01 07:25:11;;;;;;;2.65;0.68;;;22.00;64.50;;;;;;6096760;23;20019;-67
2022/09/01 07:27:37;;;;;;;1.40;0.60;;;22.10;64.10;;;;;;6096945;23;20453;-66
2022/09/01 07:30:08;;;;;;;1.52;0.95;;;22.00;64.30;;;;;;6097309;23;20114;-66
2022/09/01 07:32:35;;;;;;;1.60;0.90;;;22.00;64.30;;;;;;6097016;23;20033;-67
2022/09/01 07:35:07;;;;;;;1.38;0.82;;;22.00;63.80;;;;;;6097060;23;20046;-66
2022/09/01 07:37:36;;;;;;;1.10;0.80;;;22.00;63.50;;;;;;6097150;23;20311;-66
2022/09/01 07:40:05;;;;;;;3.70;1.00;;;22.00;64.00;;;;;;6097035;23;20014;-67
2022/09/01 07:42:32;;;;;;;1.25;0.80;;;22.00;63.50;;;;;;6097020;23;19999;-66
2022/09/01 07:44:58;;;;;;;1.75;0.88;;;22.00;63.80;;;;;;6096662;23;20010;-66
2022/09/01 07:47:25;;;;;;;3.40;1.10;;;22.00;63.70;;;;;;6097319;23;20036;-66
2022/09/01 07:49:51;;;;;;;1.17;0.90;;;22.00;63.70;;;;;;6096884;23;20013;-66
2022/09/01 07:52:19;;;;;;;1.83;0.90;;;22.00;63.50;;;;;;6096958;23;20015;-66
2022/09/01 07:54:44;;;;;;;3.35;1.27;;;22.10;64.60;;;;;;6097277;23;20066;-66
2022/09/01 07:57:11;;;;;;;2.25;1.00;;;22.20;63.90;;;;;;6096521;23;20359;-66
2022/09/01 07:59:37;;;;;;;2.45;1.10;;;22.20;63.50;;;;;;6096733;23;20372;-67
2022/09/01 08:02:04;;;;;;;1.02;0.90;;;22.30;63.40;;;;;;6096994;23;20037;-66
2022/09/01 08:04:32;;;;;;;2.85;1.10;;;22.30;62.90;;;;;;6096979;23;20006;-65
2022/09/01 08:06:59;;;;;;;1.83;0.98;;;22.40;63.40;;;;;;6096793;23;20022;-66
2022/09/01 08:09:24;;;;;;;1.05;0.90;;;22.40;62.80;;;;;;6098390;23;20338;-66
2022/09/01 08:11:51;;;;;;;1.27;0.90;;;22.50;62.80;;;;;;6098771;23;20002;-66
2022/09/01 08:14:16;;;;;;;3.13;0.80;;;22.50;63.10;;;;;;6098979;23;20022;-67
2022/09/01 08:16:42;;;;;;;1.40;1.00;;;22.60;61.90;;;;;;6098809;23;20428;-66
2022/09/01 08:19:08;;;;;;;2.67;1.50;;;22.70;61.50;;;;;;6098813;23;20497;-67
2022/09/01 08:21:34;;;;;;;1.15;0.90;;;22.70;62.00;;;;;;6098930;23;19998;-66
2022/09/01 08:24:00;;;;;;;0.90;0.80;;;22.80;62.30;;;;;;6099367;23;20018;-65
2022/09/01 08:26:25;;;;;;;2.10;1.00;;;22.90;60.70;;;;;;6098579;23;20038;-66
2022/09/01 08:28:53;;;;;;;6.40;2.20;;;22.90;60.90;;;;;;6099016;23;20006;-67
2022/09/01 08:31:19;;;;;;;3.58;1.00;;;22.90;61.00;;;;;;6098291;23;20033;-67
2022/09/01 08:33:46;;;;;;;2.33;1.00;;;22.90;60.90;;;;;;6098510;23;20352;-66
2022/09/01 08:36:14;;;;;;;4.72;1.02;;;22.90;60.40;;;;;;6098628;23;20053;-66
2022/09/01 08:38:40;;;;;;;1.25;0.90;;;22.90;60.20;;;;;;6098789;23;20030;-67
2022/09/01 08:41:27;;;;;;;4.97;1.00;;;22.90;60.90;;;;;;6098574;23;20057;-67
2022/09/01 08:44:09;;;;;;;1.25;1.02;;;22.90;60.90;;;;;;6098526;23;20057;-67
2022/09/01 08:46:38;;;;;;;3.03;0.82;;;23.00;60.90;;;;;;6098872;23;20430;-67
2022/09/01 08:49:18;;;;;;;1.67;0.98;;;23.10;61.20;;;;;;6098458;23;20079;-67
2022/09/01 08:51:56;;;;;;;1.70;0.88;;;23.20;61.20;;;;;;6098280;23;20010;-66
2022/09/01 08:54:35;;;;;;;1.88;1.10;;;23.30;61.00;;;;;;6098338;23;20011;-66
2022/09/01 08:57:07;;;;;;;1.55;1.00;;;23.40;60.40;;;;;;6098673;23;20330;-66
2022/09/01 08:59:33;;;;;;;1.92;1.17;;;23.50;59.30;;;;;;6072674;23;20405;-67
2022/09/01 09:02:07;;;;;;;2.10;0.93;;;23.50;59.00;;;;;;6098409;23;19998;-66
2022/09/01 09:04:46;;;;;;;1.98;0.95;;;23.70;59.10;;;;;;6098271;23;20448;-67
2022/09/01 09:07:38;;;;;;;2.78;1.00;;;23.70;58.60;;;;;;6098356;23;20097;-67
2022/09/01 09:10:31;;;;;;;1.98;1.20;;;23.80;58.70;;;;;;6098439;23;19998;-66
2022/09/01 09:13:23;;;;;;;1.33;0.98;;;23.90;58.40;;;;;;6098098;23;20003;-67
2022/09/01 09:16:16;;;;;;;1.13;0.98;;;23.90;57.90;;;;;;6098460;23;20011;-65
2022/09/01 09:18:53;;;;;;;1.73;1.13;;;24.00;57.10;;;;;;6089362;23;20062;-67
2022/09/01 09:21:35;;;;;;;1.55;1.15;;;24.00;58.00;;;;;;6097802;23;20013;-67
2022/09/01 09:24:54;;;;;;;3.80;1.20;;;24.10;57.00;;;;;;6098242;23;20034;-67
2022/09/01 09:27:31;;;;;;;2.15;1.20;;;24.20;57.30;;;;;;6097979;23;20404;-66
2022/09/01 09:30:03;;;;;;;1.23;1.05;;;24.30;56.00;;;;;;6098266;23;20307;-66
2022/09/01 09:33:09;;;;;;;2.17;1.10;;;24.20;55.30;;;;;;6098585;23;20010;-66
2022/09/01 09:35:43;;;;;;;2.15;1.00;;;24.20;55.70;;;;;;6088114;23;20010;-66
2022/09/01 09:38:31;;;;;;;1.33;1.00;;;24.20;55.80;;;;;;6097983;23;20010;-66
2022/09/01 09:41:06;;;;;;;2.45;0.95;;;24.20;55.40;;;;;;6098506;23;20014;-67
2022/09/01 09:43:36;;;;;;;1.67;0.95;;;24.20;55.40;;;;;;6098415;23;20010;-66
2022/09/01 09:46:33;;;;;;;1.80;0.98;;;24.10;55.00;;;;;;6097950;23;20014;-66
2022/09/01 09:49:11;;;;;;;7.10;1.10;;;24.10;54.70;;;;;;6098135;23;20334;-66
2022/09/01 09:51:39;;;;;;;3.80;1.00;;;24.10;55.70;;;;;;6097882;23;20334;-66
2022/09/01 09:54:24;;;;;;;2.33;1.20;;;24.10;55.20;;;;;;6097490;23;20065;-67
2022/09/01 09:57:02;;;;;;;3.33;1.05;;;24.10;54.70;;;;;;6097805;23;20010;-67
2022/09/01 09:59:32;;;;;;;2.85;1.35;;;24.00;55.40;;;;;;6097599;23;20357;-66
2022/09/01 10:01:59;;;;;;;2.40;1.10;;;24.00;55.10;;;;;;6097753;23;20034;-66
2022/09/01 10:04:36;;;;;;;2.05;0.95;;;24.00;54.30;;;;;;6098187;23;20430;-66
2022/09/01 10:07:30;;;;;;;3.75;1.13;;;24.00;54.00;;;;;;6097973;23;20022;-66
2022/09/01 10:10:02;;;;;;;3.40;0.98;;;24.00;54.40;;;;;;6097793;23;20448;-67
2022/09/01 10:12:30;;;;;;;1.67;0.90;;;24.00;54.60;;;;;;6097690;23;20366;-66
2022/09/01 10:15:03;;;;;;;3.53;1.00;;;23.90;54.20;;;;;;6098079;23;20073;-66
2022/09/01 10:17:34;;;;;;;1.63;1.10;;;23.90;54.40;;;;;;6097830;23;20053;-67
2022/09/01 10:20:21;;;;;;;3.10;1.05;;;23.90;54.90;;;;;;6097625;23;20009;-66
2022/09/01 10:22:48;;;;;;;0.90;0.80;;;24.00;55.20;;;;;;6097476;23;20045;-66
2022/09/01 10:25:21;;;;;;;10.93;1.73;;;24.10;54.60;;;;;;6097524;23;20002;-67
2022/09/01 10:27:56;;;;;;;2.72;1.20;;;24.20;53.50;;;;;;6098048;23;20315;-67
2022/09/01 10:30:22;;;;;;;1.92;1.10;;;24.20;53.90;;;;;;6097814;23;20010;-66
2022/09/01 10:32:52;;;;;;;1.40;0.98;;;24.20;53.50;;;;;;6097530;23;20098;-66
2022/09/01 10:35:25;;;;;;;1.58;0.90;;;24.20;54.00;;;;;;6097216;23;20007;-67
2022/09/01 10:37:53;;;;;;;2.88;1.05;;;24.20;53.10;;;;;;6097655;23;20370;-66
2022/09/01 10:40:27;;;;;;;4.07;1.30;;;24.20;53.50;;;;;;6097348;23;20007;-66
2022/09/01 10:42:56;;;;;;;2.05;1.10;;;24.20;53.80;;;;;;6097715;23;20017;-67
2022/09/01 10:45:34;;;;;;;1.35;0.93;;;24.30;53.20;;;;;;6097206;23;20014;-66
2022/09/01 10:48:24;;;;;;;2.97;1.08;;;24.30;53.20;;;;;;6097469;23;20002;-67
2022/09/01 10:51:10;;;;;;;2.15;0.95;;;24.40;52.90;;;;;;6097420;23;20029;-66
2022/09/01 10:53:37;;;;;;;3.75;1.17;;;24.50;52.20;;;;;;6097408;23;20090;-67
2022/09/01 10:56:14;;;;;;;2.50;1.13;;;24.50;52.80;;;;;;6097365;23;20006;-66
2022/09/01 10:59:03;;;;;;;4.55;1.08;;;24.50;51.50;;;;;;6097184;23;20319;-66
2022/09/01 11:01:43;;;;;;;3.92;1.00;;;24.50;51.70;;;;;;6097111;23;20041;-66
2022/09/01 11:04:14;;;;;;;2.90;1.00;;;24.50;52.10;;;;;;6097362;23;20006;-67
2022/09/01 11:06:44;;;;;;;3.50;1.20;;;24.60;51.90;;;;;;6097319;23;20038;-66
2022/09/01 11:09:22;;;;;;;2.38;1.40;;;24.60;51.60;;;;;;6097245;23;20081;-67
2022/09/01 11:12:01;;;;;;;1.85;0.82;;;24.70;51.80;;;;;;6097085;23;20011;-66
2022/09/01 11:14:34;;;;;;;3.15;0.90;;;24.70;50.60;;;;;;6097555;23;20010;-66
2022/09/01 11:17:17;;;;;;;2.80;0.90;;;24.70;51.30;;;;;;6097400;23;20077;-67
2022/09/01 11:19:49;;;;;;;4.43;1.10;;;24.70;51.60;;;;;;6097317;23;20433;-66
2022/09/01 11:22:24;;;;;;;1.58;0.80;;;24.70;51.20;;;;;;6096561;23;20434;-66
2022/09/01 11:25:07;;;;;;;2.40;1.05;;;24.70;51.10;;;;;;6096995;23;20006;-67
2022/09/01 11:27:48;;;;;;;1.85;1.20;;;24.70;51.20;;;;;;6097132;23;20007;-67
2022/09/01 11:30:21;;;;;;;1.10;1.00;;;24.70;51.20;;;;;;6096978;23;20442;-66
2022/09/01 11:32:51;;;;;;;4.82;1.00;;;24.70;51.60;;;;;;6096984;23;20062;-67
2022/09/01 11:35:20;;;;;;;1.95;0.93;;;24.70;50.80;;;;;;6097346;23;20429;-67
2022/09/01 11:37:53;;;;;;;0.80;0.80;;;24.80;51.10;;;;;;6097703;23;20006;-67
2022/09/01 11:40:28;;;;;;;2.63;1.00;;;24.80;50.80;;;;;;6097021;23;20006;-66
2022/09/01 11:42:56;;;;;;;1.88;1.13;;;24.80;50.80;;;;;;6096905;23;20002;-66
2022/09/01 11:45:29;;;;;;;3.95;0.95;;;24.90;51.10;;;;;;6096912;23;20010;-67
2022/09/01 11:48:00;;;;;;;2.63;1.20;;;24.90;50.40;;;;;;6096703;23;20011;-66
2022/09/01 11:50:30;;;;;;;2.90;1.02;;;25.00;50.00;;;;;;6096983;23;20027;-67
2022/09/01 11:52:58;;;;;;;1.38;0.98;;;25.00;50.10;;;;;;6096819;23;20007;-66
2022/09/01 11:55:33;;;;;;;1.83;1.05;;;25.10;50.00;;;;;;6096770;23;20064;-67
2022/09/01 11:57:59;;;;;;;1.92;1.10;;;25.20;49.80;;;;;;6096892;23;20396;-66
2022/09/01 12:00:31;;;;;;;3.00;1.08;;;25.40;49.70;;;;;;6096170;23;20018;-67
2022/09/01 12:02:58;;;;;;;3.92;1.00;;;25.50;48.80;;;;;;6096493;23;20003;-67
2022/09/01 12:05:33;;;;;;;3.72;1.30;;;25.50;48.20;;;;;;6096148;23;20015;-66
2022/09/01 12:08:04;;;;;;;2.25;1.00;;;25.60;47.80;;;;;;6096615;23;20017;-67
2022/09/01 12:10:33;;;;;;;3.30;1.20;;;25.50;47.70;;;;;;6096592;23;20357;-66
2022/09/01 12:13:22;;;;;;;6.72;0.90;;;25.50;47.80;;;;;;6096271;23;20013;-66
2022/09/01 12:15:56;;;;;;;2.28;1.05;;;25.50;47.00;;;;;;6096170;23;20013;-67
2022/09/01 12:18:25;;;;;;;6.00;1.48;;;25.60;47.90;;;;;;6096196;23;20053;-67
2022/09/01 12:20:52;;;;;;;2.75;1.10;;;25.50;47.10;;;;;;6096282;23;20460;-67
2022/09/01 12:23:24;;;;;;;2.50;1.02;;;25.50;46.60;;;;;;6096440;23;20006;-67
2022/09/01 12:25:54;;;;;;;8.45;1.35;;;25.50;46.90;;;;;;6096644;23;20330;-67
2022/09/01 12:28:22;;;;;;;2.88;1.10;;;25.50;46.50;;;;;;6096649;23;20030;-67
2022/09/01 12:30:48;;;;;;;1.42;0.82;;;25.50;46.40;;;;;;6096251;23;20421;-65
2022/09/01 12:33:17;;;;;;;2.90;1.05;;;25.60;47.30;;;;;;6096373;23;20026;-67
2022/09/01 12:35:44;;;;;;;2.92;1.13;;;25.80;46.50;;;;;;6096467;23;20018;-66
2022/09/01 12:38:22;;;;;;;9.32;1.67;;;25.80;46.00;;;;;;6096930;23;20073;-66
2022/09/01 12:40:54;;;;;;;1.83;1.00;;;25.90;45.90;;;;;;6096841;23;20069;-67
2022/09/01 12:43:28;;;;;;;;;;;25.90;45.30;;;;;;6097059;23;20010;-67
2022/09/01 12:45:56;;;;;;;1.33;0.88;;;25.90;44.80;;;;;;6096179;23;20325;-67
2022/09/01 12:48:30;;;;;;;4.40;1.45;;;25.90;44.90;;;;;;6096435;23;20003;-67
2022/09/01 12:50:59;;;;;;;2.15;1.00;;;25.90;45.00;;;;;;6096634;23;20088;-67
2022/09/01 12:53:28;;;;;;;5.20;1.33;;;25.80;45.50;;;;;;6095991;23;20326;-67
2022/09/01 12:56:01;;;;;;;4.72;1.10;;;25.80;44.70;;;;;;6097200;23;20425;-67
2022/09/01 12:58:29;;;;;;;3.60;1.00;;;25.70;45.30;;;;;;6098112;23;20003;-67
2022/09/01 13:00:56;;;;;;;1.88;0.90;;;25.80;45.90;;;;;;6098415;23;20022;-67
2022/09/01 13:03:26;;;;;;;1.08;0.90;;;25.80;45.10;;;;;;6097586;23;20466;-66
2022/09/01 13:05:53;;;;;;;3.38;0.95;;;25.90;45.20;;;;;;6097851;23;20043;-66
2022/09/01 13:08:25;;;;;;;5.47;1.45;;;25.90;44.40;;;;;;6098194;23;20026;-66
2022/09/01 13:11:06;;;;;;;2.28;1.02;;;25.90;44.60;;;;;;6098315;23;20018;-67